createdAt,value
2022-09-25T00:00:54.990Z,14.04
2022-09-25T00:06:06.522Z,13.99
2022-09-25T00:11:11.925Z,13.90
2022-09-25T00:16:19.694Z,13.72
2022-09-25T00:21:21.736Z,13.61
2022-09-25T00:26:26.083Z,13.55
2022-09-25T00:31:29.388Z,13.29
2022-09-25T00:36:31.915Z,13.06
2022-09-25T00:41:33.591Z,13.00
2022-09-25T00:46:40.443Z,12.95
2022-09-25T00:52:03.143Z,12.71
2022-09-25T00:57:10.800Z,12.67
2022-09-25T01:02:19.982Z,12.46
2022-09-25T01:07:21.791Z,12.31
2022-09-25T01:12:23.487Z,12.33
2022-09-25T01:17:38.409Z,12.26
2022-09-25T01:22:55.158Z,12.00
2022-09-25T01:28:29.434Z,11.74
2022-09-25T01:33:37.038Z,11.67
2022-09-25T01:38:55.126Z,11.72
2022-09-25T01:43:58.714Z,11.72
2022-09-25T01:49:08.693Z,11.53
2022-09-25T01:54:17.727Z,11.45
2022-09-25T01:59:33.102Z,11.48
2022-09-25T02:04:39.230Z,11.61
2022-09-25T02:09:45.934Z,11.63
2022-09-25T02:14:59.151Z,11.59
2022-09-25T02:20:19.820Z,11.66
2022-09-25T02:25:37.612Z,11.76
2022-09-25T02:30:39.474Z,11.81
2022-09-25T02:35:42.326Z,11.87
2022-09-25T02:40:56.103Z,11.99
2022-09-25T02:46:24.056Z,12.07
2022-09-25T02:52:03.462Z,12.17
2022-09-25T02:57:26.640Z,12.14
2022-09-25T03:02:31.622Z,12.22
2022-09-25T03:07:53.783Z,12.19
2022-09-25T03:12:55.413Z,12.23
2022-09-25T03:17:58.080Z,12.38
2022-09-25T03:22:59.687Z,12.46
2022-09-25T03:28:01.546Z,12.50
2022-09-25T03:33:03.228Z,12.55
2022-09-25T03:38:05.323Z,12.50
2022-09-25T03:48:07.897Z,12.63
2022-09-25T03:53:09.655Z,12.67
2022-09-25T03:58:11.322Z,12.64
2022-09-25T04:03:16.165Z,12.67
2022-09-25T04:08:17.815Z,12.69
2022-09-25T04:13:19.795Z,12.67
2022-09-25T04:18:21.482Z,12.75
2022-09-25T04:23:23.148Z,12.81
2022-09-25T04:28:25.860Z,12.83
2022-09-25T04:33:46.270Z,12.74
2022-09-25T04:38:48.615Z,12.68
2022-09-25T04:43:50.255Z,12.67
2022-09-25T04:48:51.920Z,12.74
2022-09-25T04:53:53.878Z,12.83
2022-09-25T04:58:55.929Z,12.86
2022-09-25T05:03:57.703Z,12.91
2022-09-25T05:08:59.397Z,12.86
2022-09-25T05:14:01.307Z,12.86
2022-09-25T05:19:02.996Z,12.88
2022-09-25T05:24:05.263Z,12.85
2022-09-25T05:29:07.016Z,12.85
2022-09-25T05:34:09.713Z,12.80
2022-09-25T05:39:14.424Z,12.75
2022-09-25T05:44:16.596Z,12.80
2022-09-25T05:49:18.223Z,12.88
2022-09-25T05:54:19.861Z,12.89
2022-09-25T05:59:21.545Z,12.84
2022-09-25T06:04:23.263Z,12.84
2022-09-25T06:09:24.892Z,12.91
2022-09-25T06:14:26.507Z,12.89
2022-09-25T06:19:30.991Z,12.92
2022-09-25T06:24:32.658Z,13.04
2022-09-25T06:29:34.381Z,13.11
2022-09-25T06:34:36.044Z,13.17
2022-09-25T06:39:37.993Z,13.14
2022-09-25T06:44:39.909Z,13.20
2022-09-25T06:49:41.578Z,13.29
2022-09-25T06:54:44.354Z,13.36
2022-09-25T06:59:46.331Z,13.40
2022-09-25T07:04:51.227Z,13.45
2022-09-25T07:09:53.090Z,13.44
2022-09-25T07:14:55.243Z,13.37
2022-09-25T07:19:56.924Z,13.38
2022-09-25T07:24:58.604Z,13.36
2022-09-25T07:30:00.872Z,13.38
2022-09-25T07:35:03.253Z,13.41
2022-09-25T07:40:05.434Z,13.47
2022-09-25T07:45:08.125Z,13.52
2022-09-25T07:50:15.264Z,13.58
2022-09-25T07:55:18.255Z,13.66
2022-09-25T08:00:19.960Z,13.58
2022-09-25T08:05:21.770Z,13.55
2022-09-25T08:10:23.640Z,13.55
2022-09-25T08:15:25.798Z,13.49
2022-09-25T08:20:27.472Z,13.48
2022-09-25T08:25:29.198Z,13.49
2022-09-25T08:30:31.098Z,13.63
2022-09-25T08:35:32.785Z,13.82
2022-09-25T08:40:41.794Z,13.92
2022-09-25T08:46:05.505Z,13.89
2022-09-25T08:51:09.108Z,13.90
2022-09-25T08:56:19.590Z,13.96
2022-09-25T09:01:28.425Z,13.95
2022-09-25T09:06:32.940Z,13.94
2022-09-25T09:11:44.045Z,13.95
2022-09-25T09:16:59.763Z,13.93
2022-09-25T09:22:09.422Z,13.89
2022-09-25T09:27:38.878Z,13.90
2022-09-25T09:33:01.697Z,13.82
2022-09-25T09:38:31.930Z,13.85
2022-09-25T09:44:15.417Z,13.88
2022-09-25T09:49:34.177Z,13.97
2022-09-25T09:55:02.379Z,14.08
2022-09-25T10:00:08.193Z,14.22
2022-09-25T10:05:46.783Z,14.26
2022-09-25T10:10:54.891Z,14.33
2022-09-25T10:16:00.415Z,14.34
2022-09-25T10:21:14.942Z,14.49
2022-09-25T10:26:37.864Z,14.53
2022-09-25T10:31:40.931Z,14.46
2022-09-25T10:36:46.121Z,14.34
2022-09-25T10:41:47.891Z,14.22
2022-09-25T10:47:08.012Z,14.23
2022-09-25T10:52:13.995Z,14.26
2022-09-25T10:57:34.202Z,14.19
2022-09-25T11:02:41.352Z,14.20
2022-09-25T11:07:54.954Z,14.21
2022-09-25T11:12:58.226Z,14.26
2022-09-25T11:18:00.128Z,14.33
2022-09-25T11:23:34.086Z,14.46
2022-09-25T11:28:57.596Z,14.51
2022-09-25T11:34:34.178Z,14.61
2022-09-25T11:40:00.799Z,14.69
2022-09-25T11:45:13.227Z,14.80
2022-09-25T11:50:16.964Z,14.79
2022-09-25T11:55:50.021Z,14.82
2022-09-25T12:01:08.191Z,14.91
2022-09-25T12:06:28.478Z,15.09
2022-09-25T12:11:41.380Z,15.22
2022-09-25T12:16:52.371Z,15.21
2022-09-25T12:22:14.699Z,15.32
2022-09-25T12:27:48.385Z,15.44
2022-09-25T12:33:02.488Z,15.47
2022-09-25T12:38:14.403Z,15.62
2022-09-25T12:43:43.064Z,15.75
2022-09-25T12:48:52.095Z,15.84
2022-09-25T12:54:07.026Z,15.89
2022-09-25T12:59:27.337Z,15.93
2022-09-25T13:04:43.234Z,16.03
2022-09-25T13:09:47.414Z,16.09
2022-09-25T13:14:55.835Z,16.24
2022-09-25T13:20:28.680Z,16.32
2022-09-25T13:25:41.655Z,16.38
2022-09-25T13:30:57.762Z,16.53
2022-09-25T13:36:16.189Z,16.43
2022-09-25T13:41:17.860Z,16.43
2022-09-25T13:46:26.090Z,16.46
2022-09-25T13:51:35.936Z,16.69
2022-09-25T13:56:40.594Z,16.91
2022-09-25T14:01:44.397Z,17.53
2022-09-25T14:06:48.859Z,17.49
2022-09-25T14:11:59.663Z,17.60
2022-09-25T14:17:03.342Z,17.50
2022-09-25T14:22:06.558Z,17.47
2022-09-25T14:27:21.687Z,17.26
2022-09-25T14:32:54.534Z,17.08
2022-09-25T14:38:35.794Z,16.96
2022-09-25T14:44:16.499Z,17.29
2022-09-25T14:49:26.642Z,17.57
2022-09-25T14:54:31.920Z,17.80
2022-09-25T14:59:47.484Z,17.88
2022-09-25T15:04:50.719Z,17.60
2022-09-25T15:09:55.291Z,17.24
2022-09-25T15:15:00.477Z,17.08
2022-09-25T15:20:07.908Z,17.09
2022-09-25T15:25:22.708Z,17.02
2022-09-25T15:30:27.225Z,16.92
2022-09-25T15:35:30.574Z,16.86
2022-09-25T15:40:32.494Z,16.72
2022-09-25T15:45:38.017Z,16.62
2022-09-25T15:50:44.111Z,16.59
2022-09-25T15:55:46.380Z,16.56
2022-09-25T16:01:17.526Z,16.63
2022-09-25T16:06:19.322Z,16.62
2022-09-25T16:11:23.748Z,16.54
2022-09-25T16:16:30.669Z,16.47
2022-09-25T16:21:38.624Z,16.42
2022-09-25T16:26:42.826Z,16.36
2022-09-25T16:31:45.616Z,16.39
2022-09-25T16:36:48.541Z,16.33
2022-09-25T16:41:51.110Z,16.20
2022-09-25T16:46:52.782Z,16.16
2022-09-25T16:51:55.775Z,15.93
2022-09-25T16:56:59.284Z,15.79
2022-09-25T17:02:04.949Z,15.71
2022-09-25T17:07:08.351Z,15.64
2022-09-25T17:12:20.015Z,15.25
2022-09-25T17:17:22.202Z,14.85
2022-09-25T17:22:29.440Z,14.75
2022-09-25T17:27:31.243Z,14.56
2022-09-25T17:32:33.005Z,14.52
2022-09-25T17:37:34.691Z,14.60
2022-09-25T17:42:36.365Z,14.68
2022-09-25T17:47:38.236Z,14.52
2022-09-25T17:52:39.863Z,14.41
2022-09-25T17:57:41.580Z,14.33
2022-09-25T18:02:43.710Z,14.30
2022-09-25T18:07:45.514Z,14.33
2022-09-25T18:12:47.256Z,14.25
2022-09-25T18:17:49.293Z,14.16
2022-09-25T18:22:51.168Z,14.22
2022-09-25T18:27:52.960Z,14.20
2022-09-25T18:32:54.619Z,14.20
2022-09-25T18:37:58.931Z,14.16
2022-09-25T18:43:01.386Z,14.18
2022-09-25T18:48:04.283Z,14.15
2022-09-25T18:53:05.878Z,14.15
2022-09-25T18:58:07.826Z,14.07
2022-09-25T19:03:09.586Z,14.04
2022-09-25T19:08:11.379Z,14.05
2022-09-25T19:13:13.566Z,14.11
2022-09-25T19:18:15.367Z,14.20
2022-09-25T19:23:17.120Z,14.33
2022-09-25T19:28:19.008Z,14.43
2022-09-25T19:33:20.673Z,14.49
2022-09-25T19:38:22.291Z,14.52
2022-09-25T19:43:24.142Z,14.49
2022-09-25T19:48:26.013Z,14.50
2022-09-25T19:53:27.693Z,14.44
2022-09-25T19:58:30.478Z,14.44
2022-09-25T20:03:32.158Z,14.45
2022-09-25T20:08:34.988Z,14.51
2022-09-25T20:13:36.608Z,14.53
2022-09-25T20:18:38.350Z,14.46
2022-09-25T20:23:40.028Z,14.46
2022-09-25T20:28:42.680Z,14.39
2022-09-25T20:33:44.512Z,14.29
2022-09-25T20:38:53.169Z,14.26
2022-09-25T20:43:56.997Z,14.23
2022-09-25T20:48:59.713Z,14.23
2022-09-25T20:54:06.807Z,14.18
2022-09-25T20:59:09.254Z,14.12
2022-09-25T21:04:10.988Z,14.08
2022-09-25T21:09:19.944Z,14.06
2022-09-25T21:14:25.739Z,14.03
2022-09-25T21:19:28.371Z,13.98
2022-09-25T21:24:30.046Z,13.97
2022-09-25T21:29:32.214Z,13.96
2022-09-25T21:34:33.907Z,13.96
2022-09-25T21:39:35.656Z,13.86
2022-09-25T21:44:38.100Z,13.87
2022-09-25T21:49:39.831Z,13.77
2022-09-25T21:54:41.468Z,13.70
2022-09-25T21:59:43.124Z,13.63
2022-09-25T22:04:44.885Z,13.58
2022-09-25T22:09:46.477Z,13.53
2022-09-25T22:14:48.301Z,13.48
2022-09-25T22:19:50.025Z,13.45
2022-09-25T22:24:51.795Z,13.48
2022-09-25T22:29:53.387Z,13.50
2022-09-25T22:34:55.028Z,13.43
2022-09-25T22:39:56.700Z,13.40
2022-09-25T22:44:58.344Z,13.42
2022-09-25T22:50:00.337Z,13.38
2022-09-25T22:55:02.654Z,13.27
2022-09-25T23:00:09.935Z,13.22
2022-09-25T23:05:12.666Z,13.19
2022-09-25T23:10:14.448Z,13.18
2022-09-25T23:15:16.145Z,13.17
2022-09-25T23:20:18.490Z,13.20
2022-09-25T23:25:20.378Z,13.25
2022-09-25T23:30:22.060Z,13.27
2022-09-25T23:35:23.650Z,13.28
2022-09-25T23:40:25.935Z,13.31
2022-09-25T23:45:28.275Z,13.41
2022-09-25T23:50:30.096Z,13.47
2022-09-25T23:55:32.016Z,13.51
